createdAt,value
2022-11-05T00:01:37.330Z,3.05
2022-11-05T00:04:28.158Z,3.06
2022-11-05T00:07:16.592Z,2.81
2022-11-05T00:10:02.585Z,2.77
2022-11-05T00:12:48.263Z,2.70
2022-11-05T00:15:34.124Z,2.78
2022-11-05T00:18:20.012Z,2.50
2022-11-05T00:21:05.973Z,2.46
2022-11-05T00:23:51.939Z,2.77
2022-11-05T00:26:37.828Z,2.64
2022-11-05T00:29:23.781Z,2.73
2022-11-05T00:32:09.723Z,2.42
2022-11-05T00:34:55.514Z,2.00
2022-11-05T00:37:45.642Z,1.77
2022-11-05T00:40:34.975Z,1.83
2022-11-05T00:43:20.877Z,2.01
2022-11-05T00:46:06.727Z,1.67
2022-11-05T00:48:52.552Z,1.65
2022-11-05T00:51:38.372Z,1.56
2022-11-05T00:54:24.380Z,1.81
2022-11-05T00:57:10.643Z,1.69
2022-11-05T00:59:56.475Z,1.48
2022-11-05T01:02:42.405Z,1.64
2022-11-05T01:05:28.469Z,1.51
2022-11-05T01:08:16.258Z,1.50
2022-11-05T01:11:02.168Z,1.53
2022-11-05T01:13:47.926Z,1.77
2022-11-05T01:16:33.775Z,1.83
2022-11-05T01:19:19.737Z,1.63
2022-11-05T01:22:05.462Z,1.58
2022-11-05T01:24:51.463Z,1.87
2022-11-05T01:27:37.439Z,1.96
2022-11-05T01:30:23.136Z,2.02
2022-11-05T01:33:09.317Z,1.98
2022-11-05T01:35:55.501Z,2.02
2022-11-05T01:38:41.834Z,2.03
2022-11-05T01:41:27.670Z,1.92
2022-11-05T01:44:13.464Z,1.86
2022-11-05T01:46:59.258Z,2.08
2022-11-05T01:49:45.043Z,2.00
2022-11-05T01:52:30.867Z,2.19
2022-11-05T01:55:16.660Z,2.32
2022-11-05T01:58:04.572Z,2.45
2022-11-05T02:00:50.427Z,2.34
2022-11-05T02:03:36.108Z,2.26
2022-11-05T02:06:21.863Z,1.98
2022-11-05T02:09:07.710Z,2.41
2022-11-05T02:11:53.727Z,2.44
2022-11-05T02:14:39.536Z,2.68
2022-11-05T02:17:25.525Z,2.67
2022-11-05T02:20:11.325Z,2.27
2022-11-05T02:22:57.140Z,2.46
2022-11-05T02:25:43.079Z,2.43
2022-11-05T02:28:28.851Z,2.42
2022-11-05T02:31:14.688Z,2.40
2022-11-05T02:34:00.634Z,2.38
2022-11-05T02:36:46.554Z,2.45
2022-11-05T02:39:32.498Z,2.77
2022-11-05T02:42:18.261Z,2.93
2022-11-05T02:45:06.238Z,2.95
2022-11-05T02:47:52.243Z,3.09
2022-11-05T02:50:37.988Z,3.10
2022-11-05T02:53:23.850Z,3.46
2022-11-05T02:56:09.681Z,3.37
2022-11-05T02:58:55.470Z,3.78
2022-11-05T03:01:41.570Z,3.78
2022-11-05T03:04:27.714Z,3.73
2022-11-05T03:07:13.634Z,4.10
2022-11-05T03:10:00.060Z,4.04
2022-11-05T03:12:45.786Z,4.24
2022-11-05T03:15:31.605Z,4.55
2022-11-05T03:18:17.469Z,4.76
2022-11-05T03:21:03.245Z,5.52
2022-11-05T03:23:51.055Z,5.74
2022-11-05T03:26:36.905Z,6.14
2022-11-05T03:29:22.707Z,7.17
2022-11-05T03:32:08.465Z,8.03
2022-11-05T03:34:54.236Z,7.76
2022-11-05T03:37:40.070Z,8.04
2022-11-05T03:40:26.026Z,7.93
2022-11-05T03:43:12.185Z,8.06
2022-11-05T03:45:58.154Z,8.04
2022-11-05T03:48:44.134Z,7.34
2022-11-05T03:51:30.003Z,6.76
2022-11-05T03:54:15.938Z,7.19
2022-11-05T03:57:01.612Z,7.16
2022-11-05T03:59:47.514Z,6.97
2022-11-05T04:02:35.534Z,7.21
2022-11-05T04:05:21.624Z,6.91
2022-11-05T04:08:12.909Z,7.86
2022-11-05T04:11:00.078Z,8.25
2022-11-05T04:14:05.656Z,8.42
2022-11-05T04:17:11.741Z,8.85
2022-11-05T04:19:57.555Z,9.05
2022-11-05T04:22:43.352Z,9.06
2022-11-05T04:25:29.257Z,8.43
2022-11-05T04:28:15.128Z,8.40
2022-11-05T04:31:01.017Z,8.95
2022-11-05T04:33:46.884Z,8.38
2022-11-05T04:36:32.765Z,8.90
2022-11-05T04:39:18.716Z,9.96
2022-11-05T04:42:04.564Z,9.64
2022-11-05T04:44:50.504Z,9.99
2022-11-05T04:47:36.514Z,9.59
2022-11-05T04:50:22.469Z,9.85
2022-11-05T04:53:10.484Z,9.54
2022-11-05T04:55:56.600Z,9.69
2022-11-05T04:58:42.416Z,9.95
2022-11-05T05:01:28.357Z,10.25
2022-11-05T05:04:14.590Z,10.27
2022-11-05T05:07:00.513Z,10.09
2022-11-05T05:09:46.322Z,10.40
2022-11-05T05:12:32.107Z,10.54
2022-11-05T05:15:18.045Z,10.59
2022-11-05T05:18:04.049Z,9.96
2022-11-05T05:20:49.874Z,10.17
2022-11-05T05:23:35.831Z,9.97
2022-11-05T05:26:21.742Z,10.62
2022-11-05T05:29:07.702Z,10.14
2022-11-05T05:31:55.756Z,10.79
2022-11-05T05:34:41.538Z,9.69
2022-11-05T05:37:27.608Z,8.90
2022-11-05T05:40:13.523Z,8.89
2022-11-05T05:42:59.274Z,8.15
2022-11-05T05:45:45.224Z,7.98
2022-11-05T05:48:30.961Z,6.65
2022-11-05T05:51:16.751Z,6.80
2022-11-05T05:54:02.581Z,6.02
2022-11-05T05:56:48.580Z,6.17
2022-11-05T05:59:36.524Z,5.65
2022-11-05T06:02:22.563Z,5.44
2022-11-05T06:05:08.839Z,4.60
2022-11-05T06:07:54.949Z,5.20
2022-11-05T06:10:40.992Z,5.30
2022-11-05T06:13:26.833Z,5.61
2022-11-05T06:16:12.855Z,5.38
2022-11-05T06:18:58.743Z,4.98
2022-11-05T06:21:44.590Z,4.54
2022-11-05T06:24:30.470Z,4.63
2022-11-05T06:27:16.138Z,4.47
2022-11-05T06:30:01.989Z,4.68
2022-11-05T06:32:48.030Z,4.49
2022-11-05T06:35:34.005Z,4.47
2022-11-05T06:38:19.920Z,4.68
2022-11-05T06:41:10.021Z,4.08
2022-11-05T06:43:56.134Z,4.04
2022-11-05T06:46:45.769Z,3.64
2022-11-05T06:49:34.581Z,3.75
2022-11-05T06:52:20.378Z,4.65
2022-11-05T06:55:06.220Z,4.32
2022-11-05T06:57:52.131Z,4.35
2022-11-05T07:00:38.037Z,4.42
2022-11-05T07:03:23.920Z,4.46
2022-11-05T07:06:09.687Z,4.37
2022-11-05T07:08:55.487Z,4.38
2022-11-05T07:11:41.319Z,3.75
2022-11-05T07:14:27.099Z,3.42
2022-11-05T07:17:12.972Z,3.48
2022-11-05T07:20:01.277Z,3.58
2022-11-05T07:22:47.075Z,3.66
2022-11-05T07:25:32.995Z,3.77
2022-11-05T07:28:18.965Z,4.06
2022-11-05T07:31:04.740Z,4.06
2022-11-05T07:33:50.717Z,3.99
2022-11-05T07:36:36.632Z,4.05
2022-11-05T07:39:22.458Z,4.26
2022-11-05T07:42:08.310Z,4.77
2022-11-05T07:44:56.051Z,4.83
2022-11-05T07:47:41.772Z,4.56
2022-11-05T07:50:27.833Z,4.51
2022-11-05T07:53:14.043Z,3.84
2022-11-05T07:56:00.071Z,4.14
2022-11-05T07:58:46.057Z,3.74
2022-11-05T08:01:32.166Z,3.63
2022-11-05T08:04:18.419Z,3.42
2022-11-05T08:07:04.407Z,3.33
2022-11-05T08:09:50.276Z,3.82
2022-11-05T08:12:36.169Z,3.99
2022-11-05T08:15:22.075Z,4.24
2022-11-05T08:18:08.109Z,4.43
2022-11-05T08:20:53.853Z,4.11
2022-11-05T08:23:39.582Z,3.93
2022-11-05T08:26:25.405Z,3.91
2022-11-05T08:29:11.152Z,3.81
2022-11-05T08:31:57.058Z,3.88
2022-11-05T08:34:42.947Z,3.81
2022-11-05T08:37:28.672Z,3.89
2022-11-05T08:40:14.546Z,3.88
2022-11-05T08:43:00.591Z,4.00
2022-11-05T08:45:48.479Z,3.90
2022-11-05T08:48:34.276Z,4.01
2022-11-05T08:51:20.172Z,3.99
2022-11-05T08:54:05.939Z,3.98
2022-11-05T08:56:51.781Z,4.02
2022-11-05T08:59:37.540Z,3.77
2022-11-05T09:02:23.529Z,4.03
2022-11-05T09:05:09.840Z,4.28
2022-11-05T09:08:00.911Z,3.97
2022-11-05T09:10:47.439Z,3.94
2022-11-05T09:13:33.615Z,3.93
2022-11-05T09:16:19.625Z,4.26
2022-11-05T09:19:07.587Z,4.06
2022-11-05T09:21:53.360Z,3.94
2022-11-05T09:24:39.205Z,4.00
2022-11-05T17:14:51.515Z,1.91
2022-11-05T17:17:37.701Z,2.13
2022-11-05T17:20:23.666Z,2.16
2022-11-05T17:23:10.004Z,2.10
2022-11-05T17:25:56.612Z,2.13
2022-11-05T17:28:42.322Z,2.40
2022-11-05T17:31:28.337Z,2.36
2022-11-05T17:34:14.251Z,2.17
2022-11-05T17:37:00.055Z,2.38
2022-11-05T17:39:45.883Z,2.27
2022-11-05T17:42:31.650Z,2.38
2022-11-05T17:45:17.423Z,2.39
2022-11-05T17:48:03.226Z,2.43
2022-11-05T17:50:49.053Z,2.29
2022-11-05T17:53:34.973Z,2.33
2022-11-05T17:56:30.516Z,2.40
2022-11-05T17:59:20.492Z,2.16
2022-11-05T18:02:06.662Z,2.19
2022-11-05T18:04:52.913Z,2.12
2022-11-05T18:07:38.843Z,2.09
2022-11-05T18:10:24.866Z,3.37
2022-11-05T18:13:11.161Z,5.57
2022-11-05T18:15:57.616Z,2.45
2022-11-05T18:18:43.533Z,2.43
2022-11-05T18:21:29.403Z,2.41
2022-11-05T18:24:15.331Z,2.33
2022-11-05T18:27:01.099Z,2.28
2022-11-05T18:29:47.106Z,2.37
2022-11-05T18:32:32.964Z,2.38
2022-11-05T18:35:18.831Z,2.38
2022-11-05T18:38:04.946Z,2.15
2022-11-05T18:40:50.645Z,2.10
2022-11-05T18:43:36.415Z,2.09
2022-11-05T18:46:51.082Z,1.81
2022-11-05T18:49:28.611Z,2.02
2022-11-05T18:52:14.414Z,2.01
2022-11-05T18:55:00.283Z,2.24
2022-11-05T18:57:46.074Z,2.18
2022-11-05T19:00:31.873Z,2.09
2022-11-05T19:03:17.820Z,2.07
2022-11-05T19:06:03.711Z,2.31
2022-11-05T19:08:49.611Z,2.05
2022-11-05T19:11:35.401Z,2.22
2022-11-05T19:14:21.306Z,2.23
2022-11-05T19:17:07.302Z,2.20
2022-11-05T19:19:53.067Z,2.18
2022-11-05T19:22:38.932Z,2.52
2022-11-05T19:25:24.831Z,2.41
2022-11-05T19:28:11.034Z,2.33
2022-11-05T19:30:57.134Z,2.39
2022-11-05T19:33:43.155Z,2.15
2022-11-05T19:36:29.160Z,2.43
2022-11-05T19:39:15.146Z,3.03
2022-11-05T19:42:03.751Z,3.04
2022-11-05T19:44:50.132Z,2.75
2022-11-05T19:47:36.078Z,2.36
2022-11-05T19:50:21.984Z,2.53
2022-11-05T19:53:08.057Z,2.41
2022-11-05T19:55:53.988Z,2.47
2022-11-05T19:58:39.874Z,2.41
2022-11-05T20:01:25.820Z,2.53
2022-11-05T20:04:12.127Z,2.35
2022-11-05T20:06:58.200Z,2.13
2022-11-05T20:09:44.110Z,2.21
2022-11-05T20:12:29.860Z,2.32
2022-11-05T20:15:15.735Z,2.36
2022-11-05T20:18:01.770Z,2.24
2022-11-05T20:20:47.575Z,2.26
2022-11-05T20:23:33.437Z,2.14
2022-11-05T20:26:19.348Z,2.23
2022-11-05T20:29:05.257Z,2.11
2022-11-05T20:31:51.226Z,2.31
2022-11-05T20:34:36.997Z,2.19
2022-11-05T20:37:22.824Z,2.33
2022-11-05T20:40:08.839Z,2.42
2022-11-05T20:42:54.557Z,2.38
2022-11-05T20:45:40.431Z,2.51
2022-11-05T20:48:26.279Z,2.43
2022-11-05T20:51:12.287Z,2.55
2022-11-05T20:53:58.239Z,2.42
2022-11-05T20:56:44.084Z,2.32
2022-11-05T20:59:30.104Z,2.19
2022-11-05T21:02:16.168Z,2.48
2022-11-05T21:05:02.391Z,2.54
2022-11-05T21:07:48.403Z,2.83
2022-11-05T21:10:34.104Z,2.40
2022-11-05T21:13:19.902Z,2.62
2022-11-05T21:16:05.788Z,2.66
2022-11-05T21:18:51.599Z,3.17
2022-11-05T21:21:41.102Z,2.83
2022-11-05T21:24:27.528Z,3.06
2022-11-05T21:27:13.383Z,3.06
2022-11-05T21:29:59.313Z,3.15
2022-11-05T21:32:45.225Z,3.94
2022-11-05T21:35:30.946Z,3.70
2022-11-05T21:38:16.764Z,3.43
2022-11-05T21:41:04.726Z,3.37
2022-11-05T21:43:50.603Z,3.87
2022-11-05T21:46:36.441Z,4.41
2022-11-05T21:49:22.384Z,5.00
2022-11-05T21:52:10.244Z,5.60
2022-11-05T21:54:56.260Z,4.63
2022-11-05T21:57:42.186Z,3.83
2022-11-05T22:00:28.141Z,3.91
2022-11-05T22:03:14.097Z,3.92
2022-11-05T22:05:59.970Z,3.68
2022-11-05T22:08:45.857Z,3.76
2022-11-05T22:11:31.763Z,3.48
2022-11-05T22:14:17.601Z,3.53
2022-11-05T22:17:03.511Z,3.62
2022-11-05T22:19:49.199Z,4.21
2022-11-05T22:22:34.953Z,3.99
2022-11-05T22:25:23.891Z,4.49
2022-11-05T22:28:09.977Z,3.98
2022-11-05T22:30:57.937Z,4.12
2022-11-05T22:33:43.892Z,4.01
2022-11-05T22:36:29.601Z,3.95
2022-11-05T22:39:15.578Z,3.88
2022-11-05T22:42:05.726Z,3.73
2022-11-05T22:44:54.304Z,3.54
2022-11-05T22:47:40.114Z,3.40
2022-11-05T22:50:26.025Z,3.42
2022-11-05T22:53:11.918Z,3.27
2022-11-05T22:55:57.739Z,3.04
2022-11-05T22:58:43.636Z,3.24
2022-11-05T23:01:29.580Z,3.34
2022-11-05T23:04:15.542Z,3.63
2022-11-05T23:07:01.553Z,4.10
2022-11-05T23:09:47.362Z,3.68
2022-11-05T23:12:33.336Z,4.07
2022-11-05T23:15:21.237Z,4.34
2022-11-05T23:18:07.068Z,4.40
2022-11-05T23:20:53.097Z,4.43
2022-11-05T23:23:38.797Z,4.12
2022-11-05T23:26:24.685Z,3.89
2022-11-05T23:29:10.605Z,3.99
2022-11-05T23:31:56.437Z,3.58
2022-11-05T23:34:42.368Z,3.64
2022-11-05T23:37:28.399Z,4.02
2022-11-05T23:40:14.319Z,3.87
2022-11-05T23:43:00.236Z,3.90
2022-11-05T23:45:46.133Z,3.80
2022-11-05T23:48:32.066Z,9.20
2022-11-05T23:51:18.023Z,6.57
2022-11-05T23:54:05.846Z,4.97
2022-11-05T23:56:51.627Z,7.87
2022-11-05T23:59:37.642Z,5.41
